Time;durP1;ratioP1;P1;durP2;ratioP2;P2;SDS_P1;SDS_P2;PMS_P1;PMS_P2;Temp;Humidity;BMP_temperature;BMP_pressure;BME280_temperature;BME280_humidity;BME280_pressure;Samples;Min_cycle;Max_cycle;Signal;HPM_P1;HPM_P2
2022/12/12 00:01:38;;;;;;;30.85;16.75;;;0.60;99.90;;;;;;5083499;28;20054;-77
2022/12/12 00:04:04;;;;;;;31.00;18.65;;;0.60;99.90;;;;;;5076845;28;20040;-78
2022/12/12 00:06:30;;;;;;;29.05;16.83;;;0.60;99.90;;;;;;5090147;28;20657;-77
2022/12/12 00:08:56;;;;;;;31.88;19.08;;;0.50;99.90;;;;;;5066604;28;20134;-77
2022/12/12 00:11:22;;;;;;;31.23;17.25;;;0.60;99.90;;;;;;5080202;28;20043;-76
2022/12/12 00:13:48;;;;;;;29.90;17.50;;;0.50;99.90;;;;;;5082157;28;20039;-77
2022/12/12 00:16:15;;;;;;;33.63;18.98;;;0.60;99.90;;;;;;5099379;28;20054;-77
2022/12/12 00:18:40;;;;;;;33.38;18.60;;;0.50;99.90;;;;;;5079381;28;20044;-78
2022/12/12 00:21:12;;;;;;;34.75;19.23;;;0.50;99.90;;;;;;5045138;28;20040;-77
2022/12/12 00:23:37;;;;;;;33.20;18.38;;;0.50;99.90;;;;;;5077724;28;20286;-77
2022/12/12 00:26:06;;;;;;;34.88;20.60;;;0.50;99.90;;;;;;5093819;28;20047;-77
2022/12/12 00:28:32;;;;;;;32.38;18.80;;;0.50;99.90;;;;;;5085305;28;20100;-77
2022/12/12 00:30:58;;;;;;;33.38;17.48;;;1.40;99.90;;;;;;5078947;28;20043;-78
2022/12/12 00:33:23;;;;;;;30.65;17.65;;;0.70;99.90;;;;;;5077584;28;20047;-77
2022/12/12 00:35:53;;;;;;;35.50;19.63;;;0.80;99.90;;;;;;5078406;28;20044;-77
2022/12/12 00:38:21;;;;;;;34.13;18.83;;;0.80;99.90;;;;;;5073079;28;20177;-76
2022/12/12 00:40:47;;;;;;;35.13;20.13;;;0.50;99.90;;;;;;5087914;28;20488;-77
2022/12/12 00:43:14;;;;;;;35.08;20.13;;;0.60;99.90;;;;;;5084130;28;20129;-77
2022/12/12 00:45:40;;;;;;;31.73;18.95;;;1.20;99.90;;;;;;5076483;28;20480;-77
2022/12/12 00:48:06;;;;;;;33.05;18.90;;;0.50;99.90;;;;;;5093398;28;20051;-77
2022/12/12 00:50:33;;;;;;;32.88;18.52;;;0.50;99.90;;;;;;5114219;28;20101;-77
2022/12/12 00:52:59;;;;;;;33.42;19.08;;;1.00;99.90;;;;;;5094183;28;20063;-77
2022/12/12 00:55:25;;;;;;;35.03;19.65;;;0.40;99.90;;;;;;5093057;28;20040;-77
2022/12/12 00:57:51;;;;;;;34.35;19.85;;;0.40;99.90;;;;;;5076008;28;20408;-76
2022/12/12 01:00:18;;;;;;;34.75;19.92;;;0.40;99.90;;;;;;5078734;28;20510;-76
2022/12/12 01:02:44;;;;;;;34.50;19.55;;;0.40;99.90;;;;;;5075633;28;20044;-77
2022/12/12 01:05:10;;;;;;;35.00;19.77;;;0.30;99.90;;;;;;5076635;28;20114;-77
2022/12/12 01:07:36;;;;;;;31.80;18.30;;;0.30;99.90;;;;;;5074851;28;20047;-76
2022/12/12 01:10:03;;;;;;;33.78;19.40;;;0.60;99.90;;;;;;5090823;28;20052;-76
2022/12/12 01:12:29;;;;;;;33.55;18.80;;;0.40;99.90;;;;;;5095799;28;20047;-77
2022/12/12 01:14:55;;;;;;;31.90;18.15;;;0.30;99.90;;;;;;5075217;28;20051;-77
2022/12/12 01:17:20;;;;;;;32.13;17.67;;;0.40;99.90;;;;;;5095027;28;20043;-77
2022/12/12 01:19:46;;;;;;;30.20;18.13;;;0.40;99.90;;;;;;5093198;28;20144;-77
2022/12/12 01:22:12;;;;;;;33.10;19.13;;;0.50;99.90;;;;;;5062480;28;20052;-77
2022/12/12 01:24:37;;;;;;;31.60;17.90;;;0.50;99.90;;;;;;5059882;28;20110;-77
2022/12/12 01:27:03;;;;;;;32.13;17.67;;;0.70;99.90;;;;;;5070824;28;20046;-77
2022/12/12 01:29:29;;;;;;;33.70;19.00;;;0.40;99.90;;;;;;5091918;28;20043;-77
2022/12/12 01:31:54;;;;;;;33.03;18.60;;;0.40;99.90;;;;;;5092925;28;20087;-76
2022/12/12 01:34:20;;;;;;;32.92;18.88;;;0.40;99.90;;;;;;5092868;28;20040;-77
2022/12/12 01:36:46;;;;;;;32.90;19.30;;;0.40;99.90;;;;;;5062219;28;20063;-77
2022/12/12 01:39:11;;;;;;;34.33;19.00;;;0.70;99.90;;;;;;5075179;28;20125;-76
2022/12/12 01:41:37;;;;;;;34.08;19.38;;;0.50;99.90;;;;;;5094467;28;20105;-77
2022/12/12 01:44:24;;;;;;;32.53;18.73;;;0.30;99.90;;;;;;5095158;28;20069;-77
2022/12/12 01:46:49;;;;;;;31.75;18.92;;;0.70;99.90;;;;;;5092639;28;20040;-77
2022/12/12 01:49:24;;;;;;;32.45;19.40;;;0.40;99.90;;;;;;5087493;28;20058;-77
2022/12/12 01:52:03;;;;;;;30.13;17.90;;;0.40;99.90;;;;;;5093994;28;20047;-78
2022/12/12 01:54:33;;;;;;;32.47;18.35;;;1.30;99.90;;;;;;5081846;28;20040;-77
2022/12/12 01:57:02;;;;;;;32.88;18.48;;;0.40;99.90;;;;;;5077171;28;20441;-77
2022/12/12 01:59:28;;;;;;;33.00;18.90;;;0.50;99.90;;;;;;5062020;28;20047;-76
2022/12/12 02:01:54;;;;;;;32.72;19.45;;;0.90;99.90;;;;;;5083625;28;20040;-76
2022/12/12 02:04:21;;;;;;;30.27;18.40;;;0.30;99.90;;;;;;5074634;28;20063;-77
2022/12/12 02:06:49;;;;;;;31.27;18.85;;;0.40;99.90;;;;;;5074661;28;20503;-78
2022/12/12 02:09:17;;;;;;;33.58;19.45;;;0.40;99.90;;;;;;5091771;28;20047;-77
2022/12/12 02:11:50;;;;;;;31.55;18.60;;;0.40;99.90;;;;;;5078508;28;20083;-77
2022/12/12 02:14:22;;;;;;;31.80;18.08;;;0.40;99.90;;;;;;5081883;28;20044;-77
2022/12/12 02:17:13;;;;;;;32.95;19.30;;;0.40;99.90;;;;;;5088738;28;20044;-77
2022/12/12 02:20:06;;;;;;;33.40;20.10;;;0.30;99.90;;;;;;5088401;28;20050;-77
2022/12/12 02:22:51;;;;;;;33.80;19.23;;;0.30;99.90;;;;;;5057369;28;20052;-78
2022/12/12 02:25:42;;;;;;;35.85;19.75;;;0.30;99.90;;;;;;5074447;28;20044;-76
2022/12/12 02:28:45;;;;;;;31.92;19.17;;;0.30;99.90;;;;;;5074595;28;20126;-77
2022/12/12 02:31:14;;;;;;;;;;;0.40;99.90;;;;;;5090152;28;20391;-77
2022/12/12 02:33:43;;;;;;;33.00;18.83;;;0.40;99.90;;;;;;5100276;28;19927;-77
2022/12/12 02:36:11;;;;;;;31.08;18.63;;;0.30;99.90;;;;;;5073596;28;20044;-77
2022/12/12 02:38:40;;;;;;;30.85;18.35;;;1.30;99.90;;;;;;5109622;28;20032;-78
2022/12/12 02:41:21;;;;;;;32.40;19.10;;;0.30;99.90;;;;;;5084943;28;20476;-77
2022/12/12 02:44:10;;;;;;;32.90;19.83;;;0.30;99.90;;;;;;5075240;28;20052;-77
2022/12/12 02:47:21;;;;;;;33.90;19.70;;;1.30;99.90;;;;;;5092484;28;20047;-77
2022/12/12 02:49:52;;;;;;;34.22;18.85;;;0.30;99.90;;;;;;5046546;28;20129;-77
2022/12/12 02:52:18;;;;;;;34.03;19.88;;;0.30;99.90;;;;;;5076565;28;20090;-77
2022/12/12 02:54:44;;;;;;;32.70;19.48;;;0.40;99.90;;;;;;5094575;28;20458;-77
2022/12/12 02:57:16;;;;;;;33.78;20.08;;;0.30;99.90;;;;;;5092175;28;20132;-76
2022/12/12 02:59:46;;;;;;;34.23;19.67;;;0.30;99.90;;;;;;5080754;28;20169;-76
2022/12/12 03:02:35;;;;;;;33.30;19.75;;;0.40;99.90;;;;;;5074363;28;20298;-77
2022/12/12 03:08:17;;;;;;;30.92;19.13;;;0.40;99.90;;;;;;5094444;28;20118;-77
2022/12/12 03:10:52;;;;;;;32.33;19.13;;;0.30;99.90;;;;;;5097027;28;20069;-77
2022/12/12 03:13:32;;;;;;;31.17;18.73;;;0.40;99.90;;;;;;5115270;28;20055;-77
2022/12/12 03:16:33;;;;;;;29.60;18.23;;;0.30;99.90;;;;;;5080622;28;20093;-77
2022/12/12 03:19:05;;;;;;;31.67;18.15;;;0.40;99.90;;;;;;5097902;28;20044;-77
2022/12/12 03:21:37;;;;;;;31.88;19.27;;;0.40;99.90;;;;;;5114083;28;20089;-77
2022/12/12 03:24:27;;;;;;;30.90;18.87;;;0.40;99.90;;;;;;5085386;28;20384;-77
2022/12/12 03:27:26;;;;;;;29.55;18.20;;;0.40;99.90;;;;;;5075555;28;20138;-77
2022/12/12 03:29:56;;;;;;;31.05;19.10;;;0.30;99.90;;;;;;5094705;28;20425;-76
2022/12/12 03:32:28;;;;;;;30.35;18.48;;;0.30;99.90;;;;;;5089749;28;20401;-77
2022/12/12 03:35:02;;;;;;;27.83;16.87;;;0.30;99.90;;;;;;5093681;28;20047;-78
2022/12/12 03:37:34;;;;;;;28.27;16.88;;;0.30;99.90;;;;;;5080811;28;20285;-77
2022/12/12 03:40:23;;;;;;;25.27;15.77;;;0.40;99.90;;;;;;5075760;28;20044;-77
2022/12/12 03:42:54;;;;;;;27.15;16.10;;;0.30;99.90;;;;;;5078090;28;20101;-77
2022/12/12 03:45:37;;;;;;;25.80;16.13;;;0.40;99.90;;;;;;5076607;28;20082;-77
2022/12/12 03:48:13;;;;;;;27.27;16.48;;;0.30;99.90;;;;;;5086553;28;20471;-77
2022/12/12 03:50:47;;;;;;;25.50;15.15;;;0.30;99.90;;;;;;5079369;28;20123;-77
2022/12/12 03:53:37;;;;;;;26.88;16.08;;;0.30;99.90;;;;;;5068634;28;20487;-77
2022/12/12 03:56:22;;;;;;;24.98;15.82;;;0.30;99.90;;;;;;5096179;28;20477;-76
2022/12/12 03:59:07;;;;;;;28.13;16.45;;;0.30;99.90;;;;;;5079702;28;20105;-76
2022/12/12 04:01:57;;;;;;;26.88;16.13;;;0.40;99.90;;;;;;5087310;28;20048;-76
2022/12/12 04:05:01;;;;;;;28.05;16.88;;;0.30;99.90;;;;;;5065537;28;20048;-78
2022/12/12 04:07:41;;;;;;;26.50;15.88;;;0.30;99.90;;;;;;4991954;28;20046;-77
2022/12/12 04:13:05;;;;;;;28.13;16.67;;;0.30;99.90;;;;;;5111404;28;20043;-77
2022/12/12 04:15:40;;;;;;;27.77;16.50;;;0.30;99.90;;;;;;5085326;28;20056;-77
2022/12/12 04:18:24;;;;;;;25.77;16.27;;;0.30;99.90;;;;;;5075337;28;20048;-77
2022/12/12 04:24:32;;;;;;;26.17;15.18;;;0.30;99.90;;;;;;5106686;28;20063;-77
2022/12/12 04:27:23;;;;;;;25.90;15.73;;;0.30;99.90;;;;;;5084256;28;20039;-76
2022/12/12 04:30:06;;;;;;;27.35;16.17;;;0.30;99.90;;;;;;5092768;28;20048;-77
2022/12/12 04:32:38;;;;;;;25.63;15.73;;;0.30;99.90;;;;;;5087890;28;20050;-78
2022/12/12 04:35:06;;;;;;;26.05;15.98;;;0.30;99.90;;;;;;5092501;28;20132;-77
2022/12/12 04:37:41;;;;;;;28.05;16.25;;;0.30;99.90;;;;;;5075681;28;20186;-77
2022/12/12 04:40:11;;;;;;;25.42;15.55;;;0.40;99.90;;;;;;5076210;28;20111;-77
2022/12/12 04:42:42;;;;;;;25.25;15.23;;;0.30;99.90;;;;;;5076094;28;20063;-77
2022/12/12 04:45:13;;;;;;;25.75;16.08;;;0.90;99.90;;;;;;5090265;28;20044;-78
2022/12/12 04:47:42;;;;;;;27.13;16.17;;;0.30;99.90;;;;;;5084174;28;20080;-78
2022/12/12 04:50:09;;;;;;;26.15;15.77;;;0.30;99.90;;;;;;5092948;28;20122;-76
2022/12/12 04:52:37;;;;;;;26.13;16.48;;;0.30;99.90;;;;;;5095610;28;20501;-76
2022/12/12 04:55:10;;;;;;;25.33;15.43;;;0.30;99.90;;;;;;5081405;28;20052;-76
2022/12/12 04:57:52;;;;;;;27.88;15.95;;;0.30;99.90;;;;;;5095515;28;20399;-77
2022/12/12 05:00:19;;;;;;;;;;;0.30;99.90;;;;;;5078797;28;20043;-76
2022/12/12 05:03:04;;;;;;;25.30;15.20;;;0.30;99.90;;;;;;5095579;28;19920;-77
2022/12/12 05:06:04;;;;;;;26.35;15.13;;;0.30;99.90;;;;;;5095753;28;20051;-77
2022/12/12 05:08:48;;;;;;;25.30;15.55;;;0.30;99.90;;;;;;5075437;28;20048;-77
2022/12/12 05:11:14;;;;;;;24.17;15.25;;;1.10;99.90;;;;;;5093437;28;20043;-76
2022/12/12 05:13:41;;;;;;;25.05;15.50;;;0.30;99.90;;;;;;5095141;28;20051;-77
2022/12/12 05:16:31;;;;;;;28.63;16.23;;;0.30;99.90;;;;;;5095541;28;20052;-77
2022/12/12 05:18:58;;;;;;;24.55;15.43;;;0.30;99.90;;;;;;5095987;28;20053;-77
2022/12/12 05:21:24;;;;;;;24.38;15.27;;;0.40;99.90;;;;;;5095116;28;20361;-77
2022/12/12 05:23:50;;;;;;;24.92;15.15;;;1.20;99.90;;;;;;5087392;28;20072;-76
2022/12/12 05:26:24;;;;;;;24.92;15.40;;;0.30;99.90;;;;;;5093094;28;20044;-77
2022/12/12 05:28:50;;;;;;;25.40;15.23;;;0.30;99.90;;;;;;5074982;28;20431;-77
2022/12/12 05:31:16;;;;;;;24.23;16.00;;;0.30;99.90;;;;;;5075252;28;20052;-77
2022/12/12 05:33:43;;;;;;;25.70;15.55;;;0.30;99.90;;;;;;5080532;28;20134;-77
2022/12/12 05:36:09;;;;;;;26.27;15.75;;;0.30;99.90;;;;;;5082788;28;20121;-77
2022/12/12 05:38:35;;;;;;;25.40;15.73;;;0.30;99.90;;;;;;5074960;28;20551;-77
2022/12/12 05:41:01;;;;;;;24.73;16.17;;;0.30;99.90;;;;;;5075298;28;20135;-77
2022/12/12 05:43:26;;;;;;;24.42;15.20;;;0.30;99.90;;;;;;5046026;28;20122;-77
2022/12/12 05:45:52;;;;;;;24.77;15.40;;;0.40;99.90;;;;;;5066275;28;20083;-77
2022/12/12 05:48:18;;;;;;;25.10;15.65;;;0.30;99.90;;;;;;5113157;28;20047;-77
2022/12/12 05:50:44;;;;;;;25.33;15.43;;;0.30;99.90;;;;;;5078145;28;20487;-77
2022/12/12 05:53:10;;;;;;;25.85;15.45;;;0.30;99.90;;;;;;5112313;28;20051;-78
2022/12/12 05:55:36;;;;;;;26.45;15.80;;;0.30;99.90;;;;;;5088866;28;20047;-78
2022/12/12 05:58:02;;;;;;;24.55;15.65;;;0.30;99.90;;;;;;5084570;28;20757;-77
2022/12/12 06:00:28;;;;;;;24.90;15.25;;;0.30;99.90;;;;;;5074499;28;20048;-77
2022/12/12 06:02:54;;;;;;;25.13;16.05;;;0.60;99.90;;;;;;5080765;28;20052;-77
2022/12/12 06:05:20;;;;;;;25.30;15.65;;;0.30;99.90;;;;;;5081073;28;20484;-77
2022/12/12 06:07:45;;;;;;;25.35;15.20;;;0.30;99.90;;;;;;5090646;28;20547;-78
2022/12/12 06:10:12;;;;;;;27.15;16.25;;;0.30;99.90;;;;;;5080103;28;20131;-80
2022/12/12 06:12:38;;;;;;;28.35;16.48;;;0.30;99.90;;;;;;5084729;28;20078;-76
2022/12/12 06:15:04;;;;;;;27.02;16.67;;;0.30;99.90;;;;;;5079239;28;20043;-76
2022/12/12 06:17:30;;;;;;;27.52;16.58;;;0.30;99.90;;;;;;5076660;28;20071;-76
2022/12/12 06:19:56;;;;;;;24.77;15.45;;;1.00;99.90;;;;;;5089645;28;20068;-77
2022/12/12 06:22:21;;;;;;;26.02;16.08;;;0.30;99.90;;;;;;5082464;28;20395;-77
2022/12/12 06:24:47;;;;;;;24.75;14.80;;;0.60;99.90;;;;;;5113056;28;20094;-77
2022/12/12 06:27:13;;;;;;;27.65;15.35;;;0.70;99.90;;;;;;5079817;28;20514;-77
2022/12/12 06:29:39;;;;;;;23.63;15.25;;;0.30;99.90;;;;;;5046883;28;20071;-78
2022/12/12 06:32:05;;;;;;;26.63;16.02;;;0.20;99.90;;;;;;5059660;28;20074;-77
2022/12/12 06:34:31;;;;;;;26.65;16.13;;;0.30;99.90;;;;;;5106576;28;20048;-79
2022/12/12 06:36:57;;;;;;;25.88;15.77;;;0.20;99.90;;;;;;5082323;28;20101;-77
2022/12/12 06:39:23;;;;;;;26.85;16.42;;;0.20;99.90;;;;;;5075897;28;20070;-77
2022/12/12 06:41:48;;;;;;;24.95;15.70;;;0.20;99.90;;;;;;5096932;28;20050;-77
2022/12/12 06:44:14;;;;;;;25.30;16.02;;;0.20;99.90;;;;;;5078892;28;20441;-77
2022/12/12 06:46:40;;;;;;;25.80;15.75;;;0.20;99.90;;;;;;5101058;28;20044;-81
2022/12/12 06:49:08;;;;;;;24.25;14.15;;;0.20;99.90;;;;;;5101602;28;20040;-77
2022/12/12 06:51:39;;;;;;;22.60;13.63;;;0.30;99.90;;;;;;5096677;28;20051;-76
2022/12/12 06:54:05;;;;;;;23.05;14.60;;;0.60;99.90;;;;;;5103537;28;20046;-78
2022/12/12 06:56:31;;;;;;;26.83;15.32;;;0.30;99.90;;;;;;5074819;28;20059;-78
2022/12/12 06:58:58;;;;;;;26.65;16.02;;;0.30;99.90;;;;;;5086660;28;20055;-77
2022/12/12 07:01:24;;;;;;;28.85;16.77;;;0.30;99.90;;;;;;5087669;28;20059;-77
2022/12/12 07:03:51;;;;;;;27.70;16.80;;;0.20;99.90;;;;;;5092752;28;20059;-78
2022/12/12 07:06:19;;;;;;;29.98;17.45;;;0.20;99.90;;;;;;5069670;28;20052;-77
2022/12/12 07:08:46;;;;;;;28.13;16.50;;;1.20;99.90;;;;;;5087502;28;20533;-78
2022/12/12 07:11:15;;;;;;;30.65;18.13;;;0.10;99.90;;;;;;5079706;28;20123;-77
2022/12/12 07:13:40;;;;;;;29.38;17.95;;;0.10;99.90;;;;;;5092395;28;20055;-77
2022/12/12 07:16:07;;;;;;;29.88;18.00;;;0.00;99.90;;;;;;5097278;28;20039;-77
2022/12/12 07:18:33;;;;;;;28.92;17.63;;;-0.10;99.90;;;;;;5096582;28;20476;-77
2022/12/12 07:21:06;;;;;;;30.35;18.17;;;0.60;99.90;;;;;;5092041;28;20062;-79
2022/12/12 07:23:32;;;;;;;29.83;17.45;;;-0.20;99.90;;;;;;5094769;28;20032;-77
2022/12/12 07:26:02;;;;;;;27.90;16.50;;;-0.20;99.90;;;;;;5094466;28;20043;-78
2022/12/12 07:28:27;;;;;;;28.63;17.40;;;0.30;99.90;;;;;;5090787;28;20039;-77
2022/12/12 07:30:53;;;;;;;32.13;18.77;;;-0.20;99.90;;;;;;5067285;28;20046;-77
2022/12/12 07:33:19;;;;;;;30.58;17.83;;;-0.30;99.90;;;;;;5092708;28;20055;-77
2022/12/12 07:35:44;;;;;;;27.38;16.67;;;-0.10;99.90;;;;;;5073371;28;20082;-78
2022/12/12 07:38:11;;;;;;;28.02;16.40;;;-0.40;99.90;;;;;;5094274;28;20050;-80
2022/12/12 07:40:36;;;;;;;27.73;16.58;;;-0.40;99.90;;;;;;5077434;28;20040;-78
2022/12/12 07:43:03;;;;;;;28.05;16.65;;;-0.50;99.90;;;;;;5078277;28;20157;-77
2022/12/12 07:45:29;;;;;;;31.50;18.33;;;0.00;99.90;;;;;;5085397;28;20043;-77
2022/12/12 07:47:54;;;;;;;28.17;17.48;;;-0.50;99.90;;;;;;5078300;28;20445;-79
2022/12/12 07:50:21;;;;;;;28.33;17.70;;;-0.50;99.90;;;;;;5084474;28;20121;-77
2022/12/12 07:52:47;;;;;;;31.00;18.25;;;-0.60;99.90;;;;;;5099794;28;20383;-78
2022/12/12 07:55:12;;;;;;;32.38;19.70;;;-0.60;99.90;;;;;;5085874;28;20052;-77
2022/12/12 07:57:39;;;;;;;30.58;18.63;;;-0.60;99.90;;;;;;5082169;28;20052;-78
2022/12/12 08:00:09;;;;;;;30.50;18.25;;;-0.70;99.90;;;;;;5090270;28;20063;-78
2022/12/12 08:02:35;;;;;;;33.20;19.05;;;-0.70;99.90;;;;;;5096002;28;20056;-78
2022/12/12 08:05:00;;;;;;;31.35;19.40;;;-0.70;99.90;;;;;;5066875;28;20097;-79
2022/12/12 08:07:26;;;;;;;34.92;20.17;;;-0.50;99.90;;;;;;5073624;28;20075;-78
2022/12/12 08:09:52;;;;;;;28.95;17.17;;;-0.80;99.90;;;;;;5060165;28;20429;-78
2022/12/12 08:12:17;;;;;;;30.98;18.27;;;-0.80;99.90;;;;;;5086351;28;20051;-78
2022/12/12 08:14:43;;;;;;;31.98;19.00;;;-0.80;99.90;;;;;;5095577;28;20055;-78
2022/12/12 08:17:09;;;;;;;29.83;18.20;;;-0.80;99.90;;;;;;5079322;28;20498;-77
2022/12/12 08:19:35;;;;;;;32.63;18.83;;;-0.80;99.90;;;;;;5090235;28;20075;-79
2022/12/12 08:22:00;;;;;;;32.58;18.38;;;-0.80;99.90;;;;;;5070041;28;20044;-78
2022/12/12 08:24:27;;;;;;;30.88;18.40;;;-0.80;99.90;;;;;;5091059;28;20148;-77
2022/12/12 08:26:53;;;;;;;32.65;19.42;;;-0.80;99.90;;;;;;5113482;28;20077;-79
2022/12/12 08:29:19;;;;;;;38.90;22.00;;;-0.80;99.90;;;;;;5083313;28;20492;-78
2022/12/12 08:31:45;;;;;;;36.00;21.90;;;-0.80;99.90;;;;;;5090086;28;20044;-77
2022/12/12 08:34:11;;;;;;;35.33;21.15;;;-0.90;99.90;;;;;;5071044;28;20545;-77
2022/12/12 08:36:36;;;;;;;37.45;22.13;;;-0.90;99.90;;;;;;5094822;28;20046;-77
2022/12/12 08:39:14;;;;;;;31.52;18.77;;;-0.90;99.90;;;;;;5086939;28;20040;-77
2022/12/12 08:41:43;;;;;;;37.13;21.35;;;-0.90;99.90;;;;;;5079347;28;20048;-78
2022/12/12 08:44:13;;;;;;;35.85;21.58;;;-0.40;99.90;;;;;;5095871;28;20056;-78
2022/12/12 08:46:40;;;;;;;32.22;19.25;;;-0.10;99.90;;;;;;5090380;28;20512;-77
2022/12/12 08:49:06;;;;;;;31.88;18.67;;;-0.90;99.90;;;;;;5091670;28;20077;-78
2022/12/12 08:51:33;;;;;;;39.17;22.08;;;-0.90;99.90;;;;;;5064322;28;20081;-78
2022/12/12 08:53:59;;;;;;;33.35;20.25;;;-0.80;99.90;;;;;;5085497;28;20048;-78
2022/12/12 08:56:25;;;;;;;36.42;21.08;;;-0.80;99.90;;;;;;5083036;28;20047;-78
2022/12/12 08:58:51;;;;;;;39.67;22.08;;;-0.10;99.90;;;;;;5113070;28;20055;-77
2022/12/12 09:01:22;;;;;;;34.35;20.25;;;-0.80;99.90;;;;;;5086942;28;20121;-77
2022/12/12 09:03:50;;;;;;;41.33;22.63;;;-0.80;99.90;;;;;;5084111;28;20555;-77
2022/12/12 09:06:17;;;;;;;33.67;20.67;;;-0.80;99.90;;;;;;5084067;28;20051;-77
2022/12/12 09:08:43;;;;;;;37.78;21.90;;;0.00;99.90;;;;;;5092900;28;20055;-78
2022/12/12 09:11:09;;;;;;;41.65;23.55;;;-0.80;99.90;;;;;;5091319;28;20051;-78
2022/12/12 09:13:35;;;;;;;42.40;23.15;;;-0.80;99.90;;;;;;5091745;28;20109;-77
2022/12/12 09:16:01;;;;;;;41.78;22.90;;;-0.70;99.90;;;;;;5093315;28;20043;-79
2022/12/12 09:18:27;;;;;;;39.90;23.58;;;-0.70;99.90;;;;;;5055921;28;20040;-77
2022/12/12 09:20:55;;;;;;;43.05;22.65;;;-0.60;99.90;;;;;;5090302;28;20040;-78
2022/12/12 09:23:22;;;;;;;43.03;23.92;;;-0.60;99.90;;;;;;5085251;28;20054;-78
2022/12/12 09:25:48;;;;;;;41.80;22.58;;;0.00;99.90;;;;;;5095471;28;20035;-77
2022/12/12 09:28:15;;;;;;;46.00;24.10;;;-0.40;99.90;;;;;;5079082;28;20055;-77
2022/12/12 09:30:41;;;;;;;50.78;26.20;;;-0.40;99.90;;;;;;5100762;28;20440;-77
2022/12/12 09:33:07;;;;;;;46.95;26.30;;;-0.40;99.90;;;;;;5078818;28;20141;-79
2022/12/12 09:35:33;;;;;;;43.83;24.88;;;-0.40;99.90;;;;;;5062604;28;20055;-78
2022/12/12 09:37:59;;;;;;;47.60;25.35;;;-0.40;99.90;;;;;;5086564;28;20043;-78
2022/12/12 09:40:38;;;;;;;44.90;25.20;;;0.60;99.90;;;;;;5059555;28;20051;-78
2022/12/12 09:43:04;;;;;;;46.33;24.27;;;0.10;99.90;;;;;;5093081;28;20054;-78
2022/12/12 09:45:34;;;;;;;52.30;26.48;;;-0.10;99.90;;;;;;5090586;28;20054;-78
2022/12/12 09:48:02;;;;;;;49.50;26.15;;;-0.10;99.90;;;;;;5072894;28;20111;-77
2022/12/12 09:50:45;;;;;;;50.90;26.75;;;0.50;99.90;;;;;;5072875;28;20063;-79
2022/12/12 09:53:15;;;;;;;49.25;26.70;;;-0.10;99.90;;;;;;5071558;28;20052;-78
2022/12/12 09:55:53;;;;;;;54.63;28.48;;;-0.10;99.90;;;;;;5064581;28;20047;-78
2022/12/12 09:58:28;;;;;;;49.55;26.70;;;-0.10;99.90;;;;;;5087273;28;20062;-78
2022/12/12 10:01:03;;;;;;;49.47;27.33;;;0.00;99.90;;;;;;5078013;28;20475;-77
2022/12/12 10:03:48;;;;;;;49.22;26.60;;;0.10;99.90;;;;;;5094018;28;20051;-78
2022/12/12 10:06:16;;;;;;;47.80;26.10;;;0.30;99.90;;;;;;5090376;28;20043;-78
2022/12/12 10:09:19;;;;;;;47.55;26.25;;;0.90;99.90;;;;;;5087955;28;20507;-78
2022/12/12 10:11:49;;;;;;;52.03;26.77;;;0.20;99.90;;;;;;5087432;28;20040;-77
2022/12/12 10:14:22;;;;;;;54.13;28.95;;;0.30;99.90;;;;;;5111583;28;20083;-78
2022/12/12 10:16:49;;;;;;;49.58;25.60;;;0.30;99.90;;;;;;5084859;28;20044;-78
2022/12/12 10:19:25;;;;;;;50.28;26.67;;;0.30;99.90;;;;;;5078643;28;20048;-77
2022/12/12 10:21:53;;;;;;;50.88;27.35;;;0.80;99.90;;;;;;5077291;28;20471;-77
2022/12/12 10:24:43;;;;;;;53.42;28.30;;;0.50;99.90;;;;;;5086310;28;20103;-78
2022/12/12 10:27:11;;;;;;;57.38;29.58;;;0.50;99.90;;;;;;5090154;28;20051;-77
2022/12/12 10:29:46;;;;;;;56.70;29.65;;;0.50;99.90;;;;;;5088016;28;20051;-77
2022/12/12 10:32:23;;;;;;;60.28;31.33;;;0.50;99.90;;;;;;5078266;28;20079;-76
2022/12/12 10:34:55;;;;;;;55.80;28.73;;;0.50;99.90;;;;;;5081222;28;20396;-79
2022/12/12 10:37:54;;;;;;;42.60;22.00;;;0.60;99.90;;;;;;5084228;28;20052;-77
2022/12/12 10:40:28;;;;;;;53.38;28.75;;;0.60;99.90;;;;;;5076294;28;20044;-76
2022/12/12 10:42:59;;;;;;;55.55;29.20;;;0.70;99.90;;;;;;5059248;28;20040;-78
2022/12/12 10:45:43;;;;;;;55.00;29.33;;;0.70;99.90;;;;;;5075900;28;20056;-77
2022/12/12 10:48:09;;;;;;;53.88;27.42;;;0.70;99.90;;;;;;5087601;28;20448;-77
2022/12/12 10:50:46;;;;;;;47.17;24.73;;;0.90;99.90;;;;;;5068880;28;20051;-77
2022/12/12 10:53:12;;;;;;;50.75;27.42;;;0.90;99.90;;;;;;5089579;28;20051;-76
2022/12/12 10:56:04;;;;;;;52.85;30.13;;;1.50;99.90;;;;;;5072810;28;20376;-75
2022/12/12 10:58:41;;;;;;;48.92;26.35;;;1.00;99.90;;;;;;5100839;28;20086;-75
2022/12/12 11:01:17;;;;;;;44.45;25.13;;;0.90;99.90;;;;;;5078859;28;20093;-76
2022/12/12 11:03:50;;;;;;;47.72;26.35;;;1.00;99.90;;;;;;5081454;28;20122;-77
2022/12/12 11:06:44;;;;;;;49.88;27.42;;;1.00;99.90;;;;;;5085908;28;20053;-76
2022/12/12 11:09:29;;;;;;;41.78;24.35;;;1.00;99.90;;;;;;5076570;28;20051;-75
2022/12/12 11:12:01;;;;;;;45.55;25.05;;;1.10;99.90;;;;;;5096134;28;20043;-75
2022/12/12 11:14:38;;;;;;;41.75;24.27;;;1.10;99.90;;;;;;5096461;28;20074;-75
2022/12/12 11:17:39;;;;;;;43.15;25.35;;;1.10;99.90;;;;;;5086917;28;20048;-74
2022/12/12 11:20:13;;;;;;;46.15;26.25;;;1.10;99.90;;;;;;5028139;28;20040;-74
2022/12/12 11:22:38;;;;;;;44.60;25.00;;;1.10;99.90;;;;;;5084365;28;20063;-75
2022/12/12 11:25:04;;;;;;;45.70;26.50;;;1.10;99.90;;;;;;5098125;28;20085;-75
2022/12/12 11:27:40;;;;;;;44.65;26.25;;;1.20;99.90;;;;;;5079118;28;20123;-76
2022/12/12 11:30:20;;;;;;;45.80;26.00;;;1.50;99.90;;;;;;5087537;28;20479;-75
2022/12/12 11:32:48;;;;;;;40.17;23.08;;;1.20;99.90;;;;;;5097215;28;20079;-75
2022/12/12 11:35:26;;;;;;;41.55;23.27;;;1.30;99.90;;;;;;5091604;28;20071;-75
2022/12/12 11:38:06;;;;;;;37.92;21.33;;;1.50;99.90;;;;;;5078351;28;20060;-75
2022/12/12 11:40:35;;;;;;;36.97;21.75;;;1.40;99.90;;;;;;5076954;28;20052;-74
2022/12/12 11:43:24;;;;;;;36.63;21.52;;;1.40;99.90;;;;;;5091416;28;20048;-74
2022/12/12 11:46:07;;;;;;;40.30;23.83;;;1.40;99.90;;;;;;5086694;28;20054;-75
2022/12/12 11:48:56;;;;;;;38.50;21.85;;;1.40;99.90;;;;;;5076280;28;20046;-75
2022/12/12 11:51:44;;;;;;;38.15;21.90;;;1.40;99.90;;;;;;5058792;28;20125;-75
2022/12/12 11:54:19;;;;;;;33.63;20.50;;;1.40;99.90;;;;;;5085540;28;20047;-75
2022/12/12 11:57:01;;;;;;;33.42;21.25;;;1.50;99.90;;;;;;5078176;28;20434;-75
2022/12/12 11:59:45;;;;;;;36.40;21.70;;;1.50;99.90;;;;;;5097424;28;20051;-75
2022/12/12 12:02:19;;;;;;;34.10;20.85;;;1.50;99.90;;;;;;5096643;28;20047;-75
2022/12/12 12:04:53;;;;;;;35.88;22.10;;;1.60;99.90;;;;;;5076668;28;20052;-74
2022/12/12 12:07:25;;;;;;;32.17;17.67;;;1.80;99.90;;;;;;5091386;28;20048;-75
2022/12/12 12:10:07;;;;;;;22.75;13.93;;;1.70;99.90;;;;;;5077003;28;20040;-74
2022/12/12 12:12:57;;;;;;;27.88;16.58;;;1.70;99.90;;;;;;5072547;28;20052;-74
2022/12/12 12:15:40;;;;;;;25.45;16.00;;;1.70;99.90;;;;;;5096636;28;20055;-74
2022/12/12 12:18:49;;;;;;;26.50;16.27;;;1.70;99.90;;;;;;5081159;28;20096;-74
2022/12/12 12:21:15;;;;;;;30.20;18.35;;;1.60;99.90;;;;;;5095995;28;20130;-75
2022/12/12 12:24:09;;;;;;;29.42;17.73;;;1.70;99.90;;;;;;5097094;28;20126;-74
2022/12/12 12:26:56;;;;;;;27.63;16.88;;;1.70;99.90;;;;;;5095809;28;20042;-74
2022/12/12 12:30:12;;;;;;;29.30;18.25;;;1.60;99.90;;;;;;5096944;28;20062;-74
2022/12/12 12:32:57;;;;;;;29.00;16.83;;;1.70;99.90;;;;;;5067185;28;20059;-74
2022/12/12 12:35:30;;;;;;;28.13;16.88;;;1.70;99.90;;;;;;5076475;28;20098;-74
2022/12/12 12:38:13;;;;;;;27.90;16.55;;;2.00;99.90;;;;;;5077678;28;20048;-74
2022/12/12 12:41:02;;;;;;;24.75;15.30;;;1.70;99.90;;;;;;5095917;28;20040;-75
2022/12/12 12:43:49;;;;;;;24.88;14.65;;;1.70;99.90;;;;;;5068079;28;20114;-74
2022/12/12 12:46:43;;;;;;;25.40;14.85;;;1.70;99.90;;;;;;5081672;28;20048;-73
2022/12/12 12:49:29;;;;;;;23.85;14.98;;;1.70;99.90;;;;;;5078870;28;20073;-74
2022/12/12 12:52:13;;;;;;;23.92;13.82;;;1.70;99.90;;;;;;5077196;28;20048;-74
2022/12/12 12:54:40;;;;;;;23.58;15.30;;;1.70;99.90;;;;;;5085108;28;20036;-74
2022/12/12 12:57:27;;;;;;;25.23;15.20;;;1.60;99.90;;;;;;5075305;28;20480;-74
2022/12/12 13:00:00;;;;;;;23.38;14.60;;;2.10;99.90;;;;;;5076022;28;20052;-74
2022/12/12 13:03:00;;;;;;;22.60;14.40;;;1.60;99.90;;;;;;5059161;28;20570;-74
2022/12/12 13:05:43;;;;;;;23.17;14.15;;;1.60;99.90;;;;;;5075389;28;20097;-74
2022/12/12 13:08:21;;;;;;;23.85;14.35;;;1.60;99.90;;;;;;5074876;28;20043;-73
2022/12/12 13:10:51;;;;;;;22.38;13.73;;;1.60;99.90;;;;;;5086645;28;20123;-73
2022/12/12 13:13:27;;;;;;;23.27;13.63;;;1.80;99.90;;;;;;5095710;28;20043;-73